Time;durP1;ratioP1;P1;durP2;ratioP2;P2;SDS_P1;SDS_P2;PMS_P1;PMS_P2;Temp;Humidity;BMP_temperature;BMP_pressure;BME280_temperature;BME280_humidity;BME280_pressure;Samples;Min_cycle;Max_cycle;Signal;HPM_P1;HPM_P2
2024/04/05 00:02:21;;;;;;;8.35;1.52;;;12.60;99.90;;;;;;6301459;22;20000;-74
2024/04/05 00:04:47;;;;;;;6.78;1.60;;;12.50;99.90;;;;;;6302943;22;19999;-75
2024/04/05 00:07:13;;;;;;;13.18;2.00;;;12.50;99.90;;;;;;6303340;22;19999;-74
2024/04/05 00:09:40;;;;;;;9.88;2.00;;;12.60;99.90;;;;;;6302801;22;20465;-74
2024/04/05 00:12:06;;;;;;;11.43;1.60;;;12.50;99.90;;;;;;6302393;22;20007;-74
2024/04/05 00:14:32;;;;;;;10.43;1.52;;;12.60;99.90;;;;;;6302540;22;20006;-74
2024/04/05 00:16:58;;;;;;;2.38;1.20;;;12.60;99.90;;;;;;6301954;22;20003;-74
2024/04/05 00:19:24;;;;;;;10.27;2.15;;;12.60;99.90;;;;;;6302151;22;20011;-74
2024/04/05 00:21:50;;;;;;;11.57;2.08;;;12.30;99.90;;;;;;6302676;22;20003;-74
2024/04/05 00:24:15;;;;;;;15.43;2.42;;;12.30;99.90;;;;;;6302613;22;19999;-74
2024/04/05 00:26:41;;;;;;;10.15;2.65;;;12.20;99.90;;;;;;6302021;22;19995;-74
2024/04/05 00:29:07;;;;;;;9.32;1.52;;;12.20;99.90;;;;;;6301872;22;20011;-74
2024/04/05 00:31:34;;;;;;;15.68;2.00;;;12.20;99.90;;;;;;6301250;22;19999;-74
2024/04/05 00:34:00;;;;;;;7.68;1.85;;;12.10;99.90;;;;;;6301995;22;20004;-75
2024/04/05 00:36:25;;;;;;;8.25;1.80;;;12.00;99.90;;;;;;6302622;22;20539;-75
2024/04/05 00:38:54;;;;;;;7.97;1.90;;;12.00;99.90;;;;;;6302644;22;20011;-75
2024/04/05 00:41:20;;;;;;;12.80;2.60;;;12.00;99.90;;;;;;6302265;22;20132;-74
2024/04/05 00:43:46;;;;;;;10.27;2.50;;;11.90;99.90;;;;;;6302084;22;21060;-74
2024/04/05 00:46:11;;;;;;;13.65;2.00;;;11.90;99.90;;;;;;6300475;22;20433;-75
2024/04/05 00:48:37;;;;;;;9.35;2.08;;;11.80;99.90;;;;;;6300606;22;20484;-74
2024/04/05 00:51:07;;;;;;;8.82;2.00;;;11.70;99.90;;;;;;6302031;22;19999;-73
2024/04/05 00:53:33;;;;;;;8.30;2.70;;;11.70;99.90;;;;;;6302010;22;20010;-75
2024/04/05 00:56:02;;;;;;;9.50;2.15;;;11.60;99.90;;;;;;6302359;22;20029;-74
2024/04/05 00:58:27;;;;;;;8.75;2.10;;;11.60;99.90;;;;;;6301988;22;20011;-74
2024/04/05 01:00:54;;;;;;;7.57;2.20;;;11.50;99.90;;;;;;6302381;22;20006;-74
2024/04/05 01:03:20;;;;;;;8.15;2.38;;;11.50;99.90;;;;;;6300014;22;20366;-74
2024/04/05 01:05:49;;;;;;;8.02;1.88;;;11.50;99.90;;;;;;6301989;22;19995;-74
2024/04/05 01:08:16;;;;;;;6.97;1.95;;;11.40;99.90;;;;;;6302088;22;20003;-74
2024/04/05 01:10:43;;;;;;;10.18;2.15;;;11.40;99.90;;;;;;6301914;22;20037;-74
2024/04/05 01:13:11;;;;;;;8.95;2.15;;;11.40;99.90;;;;;;6301765;22;20007;-73
2024/04/05 01:15:37;;;;;;;10.70;1.80;;;11.50;99.90;;;;;;6301759;22;20082;-74
2024/04/05 01:18:07;;;;;;;7.60;2.25;;;11.50;99.90;;;;;;6300090;22;20003;-73
2024/04/05 01:20:34;;;;;;;9.38;2.05;;;11.50;99.90;;;;;;6301309;22;20007;-74
2024/04/05 01:23:02;;;;;;;6.63;1.98;;;11.40;99.90;;;;;;6300814;22;19995;-74
2024/04/05 01:25:28;;;;;;;13.23;2.40;;;11.40;99.90;;;;;;6299559;22;20007;-74
2024/04/05 01:27:54;;;;;;;6.80;2.22;;;11.40;99.90;;;;;;6299383;22;19996;-74
2024/04/05 01:30:19;;;;;;;10.95;2.40;;;11.40;99.90;;;;;;6299792;22;20003;-74
2024/04/05 01:33:03;;;;;;;12.57;1.98;;;11.50;99.90;;;;;;6297767;22;20000;-74
2024/04/05 01:35:29;;;;;;;3.63;1.90;;;11.50;99.90;;;;;;6299384;22;20000;-74
2024/04/05 01:37:55;;;;;;;8.02;2.10;;;11.40;99.90;;;;;;6299722;22;20012;-74
2024/04/05 01:40:22;;;;;;;8.70;2.20;;;11.40;99.90;;;;;;6300504;22;20650;-74
2024/04/05 01:42:47;;;;;;;14.25;2.85;;;11.40;99.90;;;;;;6300699;22;20011;-74
2024/04/05 01:45:13;;;;;;;9.98;2.35;;;11.50;99.90;;;;;;6299337;22;20053;-74
2024/04/05 01:47:39;;;;;;;9.93;2.22;;;11.50;99.90;;;;;;6298085;22;19995;-74
2024/04/05 01:50:05;;;;;;;10.00;2.40;;;11.40;99.90;;;;;;6299543;22;20442;-74
2024/04/05 01:52:31;;;;;;;10.23;2.47;;;11.40;99.90;;;;;;6299809;22;19999;-74
2024/04/05 01:54:57;;;;;;;13.25;3.00;;;11.40;99.90;;;;;;6299448;22;20008;-74
2024/04/05 01:57:23;;;;;;;6.18;1.73;;;11.50;99.90;;;;;;6299403;22;20006;-74
2024/04/05 01:59:54;;;;;;;5.70;2.17;;;11.50;99.90;;;;;;6300241;22;20012;-74
2024/04/05 02:02:21;;;;;;;6.40;1.92;;;11.50;99.90;;;;;;6299915;22;20030;-74
2024/04/05 02:04:51;;;;;;;14.75;1.95;;;11.40;99.90;;;;;;6301088;22;20014;-74
2024/04/05 02:07:21;;;;;;;11.57;2.22;;;11.40;99.90;;;;;;6301731;22;19999;-74
2024/04/05 02:09:51;;;;;;;6.63;1.80;;;11.40;99.90;;;;;;6301117;22;20031;-74
2024/04/05 02:12:17;;;;;;;6.65;1.63;;;11.40;99.90;;;;;;6301009;22;20358;-74
2024/04/05 02:14:43;;;;;;;8.55;2.05;;;11.40;99.90;;;;;;6301326;22;20010;-74
2024/04/05 02:17:09;;;;;;;13.90;2.50;;;11.30;99.90;;;;;;6299499;22;19999;-73
2024/04/05 02:19:35;;;;;;;4.60;1.63;;;11.40;99.90;;;;;;6301119;22;20018;-74
2024/04/05 02:22:00;;;;;;;4.20;1.20;;;11.40;99.90;;;;;;6299628;22;20017;-74
2024/04/05 02:24:26;;;;;;;4.20;1.30;;;11.30;99.90;;;;;;6301387;22;20035;-73
2024/04/05 02:26:52;;;;;;;4.68;1.80;;;11.30;99.90;;;;;;6301015;22;20052;-74
2024/04/05 02:29:18;;;;;;;17.50;2.00;;;11.20;99.90;;;;;;6301263;22;20078;-74
2024/04/05 02:31:44;;;;;;;10.88;1.60;;;11.30;99.90;;;;;;6299694;22;20007;-73
2024/04/05 02:34:10;;;;;;;9.60;1.85;;;11.40;99.90;;;;;;6301056;22;20647;-74
2024/04/05 02:36:35;;;;;;;4.20;1.92;;;11.40;99.90;;;;;;6300947;22;20118;-74
2024/04/05 02:39:07;;;;;;;14.68;2.22;;;11.40;99.90;;;;;;6301306;22;20011;-74
2024/04/05 02:41:33;;;;;;;6.38;1.67;;;11.40;99.90;;;;;;6301367;22;20007;-74
2024/04/05 02:43:59;;;;;;;6.50;1.35;;;11.40;99.90;;;;;;6301305;22;20003;-74
2024/04/05 02:46:25;;;;;;;8.13;2.05;;;11.30;99.90;;;;;;6300045;22;20021;-73
2024/04/05 02:48:53;;;;;;;6.38;1.50;;;11.40;99.90;;;;;;6300565;22;20078;-74
2024/04/05 02:51:18;;;;;;;6.65;1.70;;;11.40;99.90;;;;;;6301256;22;19995;-74
2024/04/05 02:53:45;;;;;;;8.48;2.15;;;11.40;99.90;;;;;;6301122;22;20004;-74
2024/04/05 02:56:11;;;;;;;9.88;1.67;;;11.40;99.90;;;;;;6300577;22;20006;-74
2024/04/05 02:58:36;;;;;;;8.02;1.75;;;11.50;99.90;;;;;;6300732;22;20443;-74
2024/04/05 03:01:02;;;;;;;4.50;1.40;;;11.40;99.90;;;;;;6300824;22;20026;-74
2024/04/05 03:03:28;;;;;;;7.15;1.77;;;11.20;99.90;;;;;;6300450;22;20457;-74
2024/04/05 03:05:53;;;;;;;6.03;1.80;;;11.30;99.90;;;;;;6300858;22;20021;-74
2024/04/05 03:08:19;;;;;;;10.73;1.95;;;11.30;99.90;;;;;;6301175;22;20000;-74
2024/04/05 03:10:45;;;;;;;5.25;1.60;;;11.20;99.90;;;;;;6300915;22;20000;-74
2024/04/05 03:13:10;;;;;;;8.65;1.90;;;11.20;99.90;;;;;;6300573;22;20018;-74
2024/04/05 03:15:36;;;;;;;5.70;1.80;;;11.10;99.90;;;;;;6302039;22;20004;-74
2024/04/05 03:18:05;;;;;;;8.00;1.90;;;11.20;99.90;;;;;;6301463;22;20003;-74
2024/04/05 03:20:30;;;;;;;6.65;1.73;;;11.10;99.90;;;;;;6302918;22;20011;-74
2024/04/05 03:22:56;;;;;;;11.15;1.88;;;11.10;99.90;;;;;;6303332;22;20070;-74
2024/04/05 03:25:22;;;;;;;7.75;1.95;;;11.10;99.90;;;;;;6302458;22;19999;-74
2024/04/05 03:27:48;;;;;;;9.27;2.45;;;11.10;99.90;;;;;;6302410;22;19999;-73
2024/04/05 03:30:15;;;;;;;5.28;1.85;;;11.10;99.90;;;;;;6302961;22;20078;-74
2024/04/05 03:32:40;;;;;;;9.05;1.48;;;11.10;99.90;;;;;;6301340;22;20091;-74
2024/04/05 03:35:06;;;;;;;6.47;1.88;;;11.10;99.90;;;;;;6302749;22;20443;-74
2024/04/05 03:37:33;;;;;;;5.85;1.67;;;11.10;99.90;;;;;;6302794;22;20004;-74
2024/04/05 03:39:58;;;;;;;9.05;1.90;;;11.00;99.90;;;;;;6303075;22;20515;-74
2024/04/05 03:42:24;;;;;;;4.22;1.65;;;11.00;99.90;;;;;;6302198;22;20004;-74
2024/04/05 03:44:50;;;;;;;6.32;1.60;;;10.90;99.90;;;;;;6302448;22;20497;-74
2024/04/05 03:47:15;;;;;;;7.90;2.10;;;10.90;99.90;;;;;;6301094;22;20086;-74
2024/04/05 03:49:41;;;;;;;10.68;1.98;;;11.00;99.90;;;;;;6302793;22;20007;-75
2024/04/05 03:52:07;;;;;;;10.25;1.63;;;11.00;99.90;;;;;;6302626;22;20011;-74
2024/04/05 03:54:33;;;;;;;11.93;1.80;;;11.00;99.90;;;;;;6302698;22;19999;-74
2024/04/05 03:56:58;;;;;;;3.95;1.52;;;10.90;99.90;;;;;;6302668;22;20082;-74
2024/04/05 03:59:26;;;;;;;14.57;1.98;;;10.80;99.90;;;;;;6302454;22;20121;-74
2024/04/05 04:01:54;;;;;;;7.07;2.13;;;10.80;99.90;;;;;;6301477;22;20358;-74
2024/04/05 04:04:23;;;;;;;3.92;1.50;;;10.80;99.90;;;;;;6302360;22;20041;-74
2024/04/05 04:06:52;;;;;;;7.68;2.00;;;10.90;99.90;;;;;;6302529;22;20065;-74
2024/04/05 04:09:18;;;;;;;5.35;1.75;;;10.80;99.90;;;;;;6302391;22;20109;-74
2024/04/05 04:11:44;;;;;;;5.18;1.60;;;10.80;99.90;;;;;;6301976;22;20619;-74
2024/04/05 04:14:13;;;;;;;13.68;1.77;;;10.90;99.90;;;;;;6302638;22;20039;-74
2024/04/05 04:16:42;;;;;;;12.07;1.75;;;10.90;99.90;;;;;;6300642;22;20007;-74
2024/04/05 04:19:11;;;;;;;10.52;2.22;;;10.80;99.90;;;;;;6301542;22;20377;-74
2024/04/05 04:21:36;;;;;;;10.35;2.00;;;11.00;99.90;;;;;;6301483;22;20074;-74
2024/04/05 04:24:02;;;;;;;6.85;2.80;;;11.00;99.90;;;;;;6302608;22;20027;-74
2024/04/05 04:26:28;;;;;;;7.75;2.10;;;10.90;99.90;;;;;;6301195;22;20661;-74
2024/04/05 04:28:53;;;;;;;9.70;1.80;;;11.00;99.90;;;;;;6302201;22;20003;-74
2024/04/05 04:31:23;;;;;;;8.82;2.60;;;11.00;99.90;;;;;;6300717;22;20058;-74
2024/04/05 04:33:51;;;;;;;4.47;1.55;;;11.00;99.90;;;;;;6301985;22;20007;-74
2024/04/05 04:36:21;;;;;;;5.47;2.55;;;10.90;99.90;;;;;;6302140;22;20647;-75
2024/04/05 04:38:51;;;;;;;8.20;2.03;;;10.90;99.90;;;;;;6301948;22;20011;-75
2024/04/05 04:41:17;;;;;;;8.82;1.55;;;11.00;99.90;;;;;;6302412;22;20003;-76
2024/04/05 04:43:43;;;;;;;14.77;1.90;;;11.00;99.90;;;;;;6302079;22;20000;-75
2024/04/05 04:46:12;;;;;;;9.63;1.65;;;10.90;99.90;;;;;;6301565;22;20018;-74
2024/04/05 04:48:38;;;;;;;5.60;1.90;;;11.00;99.90;;;;;;6301065;22;20052;-74
2024/04/05 04:51:05;;;;;;;5.25;1.50;;;10.90;99.90;;;;;;6301600;22;20027;-74
2024/04/05 04:53:30;;;;;;;5.93;1.85;;;10.90;99.90;;;;;;6302278;22;20080;-74
2024/04/05 04:55:56;;;;;;;6.20;1.65;;;11.00;99.90;;;;;;6302331;22;20202;-75
2024/04/05 04:58:28;;;;;;;7.88;1.48;;;11.00;99.90;;;;;;6301827;22;20007;-74
2024/04/05 05:00:55;;;;;;;7.55;1.55;;;10.90;99.90;;;;;;6301763;22;20088;-74
2024/04/05 05:03:21;;;;;;;7.57;1.45;;;10.80;99.90;;;;;;6300791;22;20629;-74
2024/04/05 05:05:47;;;;;;;6.07;1.20;;;10.70;99.90;;;;;;6301252;22;20003;-74
2024/04/05 05:08:12;;;;;;;4.45;1.77;;;10.50;99.90;;;;;;6302284;22;20053;-74
2024/04/05 05:10:39;;;;;;;5.53;1.50;;;10.60;99.90;;;;;;6302061;22;20417;-74
2024/04/05 05:13:14;;;;;;;12.20;1.63;;;10.40;99.90;;;;;;6301604;22;20060;-74
2024/04/05 05:15:41;;;;;;;8.68;2.10;;;10.60;99.90;;;;;;6301790;22;19999;-75
2024/04/05 05:18:11;;;;;;;3.85;1.80;;;10.80;99.90;;;;;;6300047;22;20086;-75
2024/04/05 05:20:44;;;;;;;9.75;1.80;;;10.90;99.90;;;;;;6301723;22;20034;-74
2024/04/05 05:23:09;;;;;;;7.97;1.88;;;11.00;99.90;;;;;;6301731;22;19999;-75
2024/04/05 05:25:35;;;;;;;5.07;1.58;;;11.10;99.90;;;;;;6301164;22;19999;-74
2024/04/05 05:28:00;;;;;;;6.22;2.20;;;11.20;99.90;;;;;;6301604;22;20003;-75
2024/04/05 05:30:26;;;;;;;7.40;1.92;;;11.40;99.90;;;;;;6301980;22;20004;-76
2024/04/05 05:32:53;;;;;;;5.72;1.60;;;11.40;99.90;;;;;;6300171;22;20042;-75
2024/04/05 05:35:19;;;;;;;5.40;1.30;;;11.50;99.90;;;;;;6300756;22;20006;-74
2024/04/05 05:37:44;;;;;;;7.45;1.50;;;11.50;99.90;;;;;;6299285;22;20379;-75
2024/04/05 05:40:11;;;;;;;8.20;1.50;;;11.50;99.90;;;;;;6299586;22;20053;-75
2024/04/05 05:42:36;;;;;;;5.22;1.67;;;11.50;99.90;;;;;;6299297;22;19999;-75
2024/04/05 05:45:02;;;;;;;9.80;1.52;;;11.50;99.90;;;;;;6299703;22;20343;-74
2024/04/05 05:47:28;;;;;;;5.43;1.40;;;11.40;99.90;;;;;;6297668;22;19995;-74
2024/04/05 05:49:53;;;;;;;6.03;1.98;;;11.50;99.90;;;;;;6299662;22;20003;-75
2024/04/05 05:52:19;;;;;;;5.60;1.40;;;11.40;99.90;;;;;;6300513;22;20082;-74
2024/04/05 05:54:45;;;;;;;5.75;1.90;;;11.40;99.90;;;;;;6301527;22;20476;-74
2024/04/05 05:57:10;;;;;;;7.45;1.60;;;11.40;99.90;;;;;;6300617;22;19999;-74
2024/04/05 05:59:36;;;;;;;8.55;1.65;;;11.30;99.90;;;;;;6300978;22;20057;-74
2024/04/05 06:02:02;;;;;;;5.25;1.50;;;11.40;99.90;;;;;;6299276;22;20497;-74
2024/04/05 06:04:28;;;;;;;5.35;1.33;;;11.50;99.90;;;;;;6301091;22;19999;-74
2024/04/05 06:06:55;;;;;;;2.50;1.48;;;11.50;99.90;;;;;;6301305;22;20004;-75
2024/04/05 06:09:21;;;;;;;5.72;1.38;;;11.60;99.90;;;;;;6300874;22;20076;-74
2024/04/05 06:11:47;;;;;;;9.57;2.58;;;11.70;99.90;;;;;;6299946;22;20003;-74
2024/04/05 06:14:14;;;;;;;5.32;1.25;;;11.80;99.90;;;;;;6300218;22;20086;-74
2024/04/05 06:16:39;;;;;;;6.63;1.42;;;11.80;99.90;;;;;;6299799;22;20458;-74
2024/04/05 06:19:05;;;;;;;5.50;1.55;;;11.80;99.90;;;;;;6301396;22;20466;-74
2024/04/05 06:21:31;;;;;;;8.20;1.55;;;11.80;99.90;;;;;;6301613;22;19999;-73
2024/04/05 06:23:59;;;;;;;4.32;1.80;;;11.90;99.90;;;;;;6301862;22;20036;-73
2024/04/05 06:26:25;;;;;;;8.68;1.67;;;12.00;99.90;;;;;;6301329;22;20496;-74
2024/04/05 06:28:51;;;;;;;8.75;1.42;;;12.00;99.90;;;;;;6301071;22;20027;-74
2024/04/05 06:31:17;;;;;;;8.35;1.38;;;12.00;99.90;;;;;;6301345;22;20355;-75
2024/04/05 06:33:44;;;;;;;4.72;1.27;;;12.00;99.90;;;;;;6300968;22;20003;-74
2024/04/05 06:36:09;;;;;;;4.25;1.40;;;12.00;99.90;;;;;;6302283;22;20003;-74
2024/04/05 06:38:35;;;;;;;6.07;1.83;;;12.10;99.90;;;;;;6301776;22;20011;-75
2024/04/05 06:41:01;;;;;;;4.47;1.70;;;12.20;99.90;;;;;;6301981;22;20031;-74
2024/04/05 06:43:28;;;;;;;4.00;1.50;;;12.30;99.90;;;;;;6301615;22;20014;-74
2024/04/05 06:45:54;;;;;;;3.95;1.13;;;12.40;99.90;;;;;;6301379;22;20485;-73
2024/04/05 06:48:20;;;;;;;2.17;1.60;;;12.50;99.90;;;;;;6299522;22;20006;-74
2024/04/05 06:50:46;;;;;;;6.38;1.50;;;12.60;99.90;;;;;;6303174;22;20003;-75
2024/04/05 06:53:12;;;;;;;2.85;1.30;;;12.70;99.90;;;;;;6303988;22;20082;-75
2024/04/05 06:55:44;;;;;;;2.47;1.52;;;12.90;99.90;;;;;;6302593;22;19999;-75
2024/04/05 06:58:11;;;;;;;4.60;1.17;;;13.10;99.90;;;;;;6303075;22;20034;-75
2024/04/05 07:00:38;;;;;;;6.13;1.50;;;13.10;99.90;;;;;;6303722;22;20007;-75
2024/04/05 07:03:04;;;;;;;8.73;1.58;;;13.20;99.90;;;;;;6301506;22;20312;-75
2024/04/05 07:05:30;;;;;;;6.03;1.15;;;13.40;99.90;;;;;;6303687;22;20071;-74
2024/04/05 07:07:55;;;;;;;5.20;1.40;;;13.60;99.90;;;;;;6302956;22;20017;-75
2024/04/05 07:10:21;;;;;;;6.32;1.42;;;13.60;99.90;;;;;;6303238;22;20031;-75
2024/04/05 07:12:49;;;;;;;4.90;1.20;;;13.80;86.40;;;;;;6302890;22;19999;-75
2024/04/05 07:15:15;;;;;;;3.95;1.38;;;14.10;56.60;;;;;;6303774;22;20057;-82
2024/04/05 07:17:41;;;;;;;5.25;1.50;;;14.20;1.00;;;;;;6302301;22;20320;-80
2024/04/05 07:20:11;;;;;;;4.63;1.27;;;14.30;1.00;;;;;;6304375;22;20015;-79
2024/04/05 07:22:36;;;;;;;4.22;1.83;;;14.20;1.00;;;;;;6304008;22;19999;-79
2024/04/05 07:25:06;;;;;;;5.70;1.20;;;14.30;1.00;;;;;;6304049;22;20014;-78
2024/04/05 07:27:32;;;;;;;4.22;1.10;;;14.30;1.00;;;;;;6304994;22;20013;-82
2024/04/05 07:29:57;;;;;;;4.28;1.45;;;14.40;1.00;;;;;;6306800;22;20083;-80
2024/04/05 07:32:23;;;;;;;3.15;1.00;;;14.50;1.00;;;;;;6303424;22;20064;-82
2024/04/05 07:34:49;;;;;;;2.83;1.10;;;14.50;1.00;;;;;;6305929;22;20464;-78
2024/04/05 07:37:14;;;;;;;4.90;1.05;;;14.60;1.00;;;;;;6278972;22;20030;-83
2024/04/05 07:39:41;;;;;;;8.50;1.27;;;14.70;1.00;;;;;;6306261;22;20065;-80
2024/04/05 07:42:07;;;;;;;3.05;1.08;;;14.80;1.00;;;;;;6305858;22;19999;-81
2024/04/05 07:44:33;;;;;;;5.28;1.48;;;14.90;5.80;;;;;;6304942;22;20006;-82
2024/04/05 07:46:59;;;;;;;4.10;1.38;;;15.00;1.00;;;;;;6305112;22;20030;-79
2024/04/05 07:49:26;;;;;;;3.10;1.05;;;14.90;1.00;;;;;;6303934;22;20003;-81
2024/04/05 07:51:51;;;;;;;3.65;1.35;;;14.90;1.00;;;;;;6278129;22;20591;-81
2024/04/05 07:54:17;;;;;;;3.55;1.15;;;14.90;1.00;;;;;;6306344;22;20003;-80
2024/04/05 07:56:43;;;;;;;1.15;0.93;;;14.90;1.00;;;;;;6279697;22;20415;-81
2024/04/05 07:59:10;;;;;;;7.18;1.25;;;15.10;1.00;;;;;;6307041;22;20011;-81
2024/04/05 08:01:36;;;;;;;5.43;1.17;;;15.30;1.00;;;;;;6308552;22;19999;-80
2024/04/05 08:04:02;;;;;;;1.85;1.00;;;15.20;99.90;;;;;;6305211;22;20339;-82
2024/04/05 08:06:27;;;;;;;4.38;1.05;;;15.20;99.90;;;;;;6306580;22;20074;-81
2024/04/05 08:08:53;;;;;;;1.83;0.98;;;15.40;99.90;;;;;;6305484;22;20003;-80
2024/04/05 08:11:18;;;;;;;3.38;0.90;;;15.60;99.90;;;;;;6306579;22;19995;-81
2024/04/05 08:13:44;;;;;;;5.88;0.98;;;15.60;99.90;;;;;;6305228;22;20060;-80
2024/04/05 08:16:09;;;;;;;2.00;0.90;;;15.70;99.90;;;;;;6304404;22;20078;-79
2024/04/05 08:18:36;;;;;;;3.85;1.10;;;15.70;99.90;;;;;;6305358;22;20015;-79
2024/04/05 08:21:05;;;;;;;3.72;1.00;;;16.10;99.90;;;;;;6278217;22;20009;-81
2024/04/05 08:23:31;;;;;;;2.50;0.95;;;16.20;99.90;;;;;;6306842;22;20003;-80
2024/04/05 08:25:56;;;;;;;5.25;0.93;;;15.80;99.90;;;;;;6305467;22;20497;-79
2024/04/05 08:28:22;;;;;;;2.63;0.98;;;16.20;99.90;;;;;;6305811;22;20332;-79
2024/04/05 08:30:51;;;;;;;1.50;0.88;;;16.10;99.90;;;;;;6306747;22;20003;-78
2024/04/05 08:33:17;;;;;;;2.20;0.82;;;16.10;99.90;;;;;;6303921;22;20011;-79
2024/04/05 08:35:51;;;;;;;1.63;1.05;;;16.40;99.90;;;;;;6306393;22;20007;-78
2024/04/05 08:38:17;;;;;;;5.97;1.05;;;16.30;99.90;;;;;;6306173;22;20015;-80
2024/04/05 08:40:42;;;;;;;2.05;0.70;;;16.30;99.90;;;;;;6306065;22;20079;-79
2024/04/05 08:43:09;;;;;;;2.17;0.80;;;16.30;99.90;;;;;;6302914;22;20464;-79
2024/04/05 08:45:35;;;;;;;2.83;0.75;;;16.40;99.90;;;;;;6304158;22;20023;-79
2024/04/05 08:48:04;;;;;;;1.15;0.80;;;16.80;99.90;;;;;;6303101;22;20420;-80
2024/04/05 08:50:31;;;;;;;2.72;0.80;;;16.60;99.90;;;;;;6304219;22;20041;-79
2024/04/05 08:52:57;;;;;;;3.35;0.77;;;16.30;99.90;;;;;;6302142;22;20003;-78
2024/04/05 08:55:25;;;;;;;4.32;1.02;;;16.40;99.90;;;;;;6303621;22;20011;-80
2024/04/05 08:57:51;;;;;;;3.70;0.85;;;16.70;99.90;;;;;;6301686;22;20040;-79
2024/04/05 09:00:22;;;;;;;2.45;0.80;;;17.10;99.90;;;;;;6302914;22;20030;-80
2024/04/05 09:02:53;;;;;;;2.22;0.60;;;17.10;99.90;;;;;;6301933;22;20079;-81
2024/04/05 09:05:20;;;;;;;3.55;0.90;;;17.00;99.90;;;;;;6303091;22;20370;-81
2024/04/05 09:07:49;;;;;;;3.92;0.90;;;16.80;99.90;;;;;;6302905;22;20007;-78
2024/04/05 09:10:16;;;;;;;3.55;0.90;;;16.80;99.90;;;;;;6303879;22;19999;-80
2024/04/05 09:12:52;;;;;;;6.38;0.90;;;17.10;99.90;;;;;;6302482;22;20011;-80
2024/04/05 09:15:19;;;;;;;2.10;0.55;;;17.30;99.90;;;;;;6302861;22;20006;-80
2024/04/05 09:17:46;;;;;;;1.92;0.73;;;17.70;99.90;;;;;;6301358;22;20003;-78
2024/04/05 09:20:24;;;;;;;2.47;0.90;;;18.20;99.90;;;;;;6303104;22;20011;-79
2024/04/05 09:23:02;;;;;;;1.63;0.63;;;18.20;99.90;;;;;;6303061;22;20009;-78
2024/04/05 09:25:31;;;;;;;4.93;0.88;;;17.80;99.90;;;;;;6303027;22;20454;-78
2024/04/05 09:28:08;;;;;;;5.15;0.80;;;17.70;99.90;;;;;;6302453;22;20072;-79
2024/04/05 09:30:35;;;;;;;1.08;0.70;;;17.90;99.90;;;;;;6302762;22;20007;-80
2024/04/05 09:33:01;;;;;;;3.28;0.70;;;18.10;99.90;;;;;;6302056;22;20067;-85
2024/04/05 09:35:28;;;;;;;1.67;0.63;;;18.00;99.90;;;;;;6305839;22;20003;-80
2024/04/05 09:37:55;;;;;;;2.08;0.50;;;18.10;99.90;;;;;;6304174;22;20077;-82
2024/04/05 09:40:24;;;;;;;6.65;0.90;;;17.90;99.90;;;;;;6305529;22;20034;-83
2024/04/05 09:42:53;;;;;;;2.40;0.70;;;17.70;99.90;;;;;;6305242;22;20346;-80
2024/04/05 09:45:23;;;;;;;2.75;0.65;;;17.60;99.90;;;;;;6305330;22;20092;-84
2024/04/05 09:47:49;;;;;;;1.85;0.98;;;17.60;99.90;;;;;;6304495;22;20080;-79
2024/04/05 09:50:17;;;;;;;5.30;0.98;;;17.70;99.90;;;;;;6308357;22;20015;-81
2024/04/05 09:52:46;;;;;;;6.72;0.90;;;17.70;99.90;;;;;;6308346;22;19995;-80
2024/04/05 09:55:16;;;;;;;3.25;0.80;;;17.90;99.90;;;;;;6307408;22;20010;-80
2024/04/05 09:57:44;;;;;;;5.13;0.63;;;18.10;99.90;;;;;;6305549;22;20462;-81
2024/04/05 10:00:16;;;;;;;1.88;0.70;;;18.00;99.90;;;;;;6308020;22;20098;-79
2024/04/05 10:02:47;;;;;;;2.42;0.68;;;17.90;99.90;;;;;;6304755;22;20506;-79
2024/04/05 10:05:32;;;;;;;1.48;0.82;;;18.20;99.90;;;;;;6305773;22;20011;-81
2024/04/05 10:08:16;;;;;;;2.47;0.88;;;18.20;99.90;;;;;;6309324;22;20349;-79
2024/04/05 10:10:43;;;;;;;1.73;0.70;;;18.30;99.90;;;;;;6282426;22;20502;-80
2024/04/05 10:13:25;;;;;;;1.77;0.70;;;18.80;99.90;;;;;;6314029;22;20442;-80
2024/04/05 10:15:54;;;;;;;4.57;0.70;;;18.70;99.90;;;;;;6311272;22;20330;-81
2024/04/05 10:18:39;;;;;;;2.30;0.82;;;18.60;99.90;;;;;;6306569;22;20006;-79
2024/04/05 10:21:08;;;;;;;1.40;0.77;;;18.30;99.90;;;;;;6312381;22;20516;-82
2024/04/05 10:23:36;;;;;;;6.63;0.80;;;18.40;99.90;;;;;;6304870;22;20010;-79
2024/04/05 10:26:03;;;;;;;5.53;1.38;;;18.40;99.90;;;;;;6301570;22;20450;-77
2024/04/05 10:28:29;;;;;;;2.40;0.90;;;18.40;99.90;;;;;;6301567;22;20122;-77
2024/04/05 10:30:59;;;;;;;2.70;0.70;;;18.40;99.90;;;;;;6301565;22;20446;-76
2024/04/05 10:33:24;;;;;;;2.78;0.60;;;18.20;99.90;;;;;;6300271;22;20056;-78
2024/04/05 10:35:50;;;;;;;4.90;0.70;;;18.30;99.90;;;;;;6299522;22;20012;-76
2024/04/05 10:38:16;;;;;;;1.48;0.77;;;18.30;99.90;;;;;;6299406;22;20000;-77
2024/04/05 10:40:56;;;;;;;1.85;0.73;;;18.20;99.90;;;;;;6299703;22;20006;-77
2024/04/05 10:43:22;;;;;;;2.55;0.65;;;18.40;99.90;;;;;;6301274;22;20008;-77
2024/04/05 10:45:54;;;;;;;1.77;0.93;;;18.50;99.90;;;;;;6300412;22;20090;-77
2024/04/05 10:48:24;;;;;;;7.15;1.02;;;18.70;99.90;;;;;;6300133;22;20019;-76
2024/04/05 10:50:51;;;;;;;1.02;0.50;;;18.60;99.90;;;;;;6301775;22;19996;-77
2024/04/05 10:53:17;;;;;;;5.65;0.40;;;18.50;99.90;;;;;;6301247;22;20005;-77
2024/04/05 10:55:44;;;;;;;2.90;0.60;;;18.70;99.90;;;;;;6304858;22;20045;-76
2024/04/05 10:58:11;;;;;;;1.67;0.50;;;18.90;99.90;;;;;;6303787;22;20061;-75
2024/04/05 11:00:37;;;;;;;1.58;0.68;;;19.10;99.90;;;;;;6304075;22;20015;-77
2024/04/05 11:03:04;;;;;;;8.80;1.73;;;19.40;99.90;;;;;;6303189;22;20178;-77
2024/04/05 11:05:30;;;;;;;2.92;0.47;;;19.60;99.90;;;;;;6303826;22;20006;-76
2024/04/05 11:08:00;;;;;;;4.18;0.70;;;19.00;99.90;;;;;;6303138;22;20003;-77
2024/04/05 11:10:33;;;;;;;1.70;0.40;;;18.90;99.90;;;;;;6302838;22;20019;-77
2024/04/05 11:12:59;;;;;;;3.10;0.68;;;18.80;99.90;;;;;;6302837;22;20403;-77
2024/04/05 11:15:25;;;;;;;2.75;0.90;;;19.50;99.90;;;;;;6301500;22;20023;-76
2024/04/05 11:18:17;;;;;;;0.55;0.52;;;19.30;99.90;;;;;;6301151;22;20002;-76
2024/04/05 11:20:47;;;;;;;6.22;0.55;;;18.60;99.90;;;;;;6296027;22;20042;-77
2024/04/05 11:23:17;;;;;;;1.98;0.55;;;18.30;99.90;;;;;;6302426;22;20004;-76
2024/04/05 11:25:53;;;;;;;2.15;0.95;;;18.30;99.90;;;;;;6301789;22;20074;-76
2024/04/05 11:28:22;;;;;;;1.50;0.57;;;18.10;99.90;;;;;;6302404;22;20129;-76
2024/04/05 11:30:48;;;;;;;3.40;0.95;;;18.20;99.90;;;;;;6302219;22;20031;-76
2024/04/05 11:33:14;;;;;;;1.55;0.75;;;18.10;99.90;;;;;;6300601;22;19995;-76
2024/04/05 11:35:40;;;;;;;2.45;0.63;;;18.20;99.90;;;;;;6302635;22;20010;-77
2024/04/05 11:38:06;;;;;;;2.45;0.70;;;18.20;99.90;;;;;;6303817;22;20365;-75
2024/04/05 11:40:32;;;;;;;1.58;0.57;;;18.20;99.90;;;;;;6303830;22;20366;-77
2024/04/05 11:42:58;;;;;;;2.45;0.77;;;18.40;99.90;;;;;;6303233;22;20430;-75
2024/04/05 11:45:24;;;;;;;1.40;0.70;;;18.30;99.90;;;;;;6303102;22;20015;-77
2024/04/05 11:47:50;;;;;;;2.08;0.60;;;18.20;99.90;;;;;;6300958;22;20027;-76
2024/04/05 11:50:16;;;;;;;2.60;1.00;;;18.30;99.90;;;;;;6276174;22;20338;-77
2024/04/05 11:52:42;;;;;;;1.48;0.73;;;18.20;99.90;;;;;;6304116;22;19999;-77
2024/04/05 11:55:08;;;;;;;1.45;0.60;;;18.30;99.90;;;;;;6303643;22;20007;-76
2024/04/05 11:57:34;;;;;;;3.83;0.50;;;17.90;99.90;;;;;;6303151;22;20003;-74
2024/04/05 12:00:04;;;;;;;1.70;0.70;;;17.90;99.90;;;;;;6303510;22;20018;-75
2024/04/05 12:02:31;;;;;;;4.18;1.00;;;17.80;99.90;;;;;;6302082;22;20003;-76
2024/04/05 12:04:56;;;;;;;1.50;0.60;;;17.70;99.90;;;;;;6302997;22;20007;-76
2024/04/05 12:07:22;;;;;;;4.45;0.82;;;17.50;99.90;;;;;;6303908;22;20007;-76
2024/04/05 12:09:48;;;;;;;3.35;0.85;;;17.40;99.90;;;;;;6303605;22;20003;-77
2024/04/05 12:12:14;;;;;;;0.90;0.70;;;17.50;99.90;;;;;;6303703;22;20459;-78
2024/04/05 12:14:39;;;;;;;4.80;0.70;;;17.60;99.90;;;;;;6304051;22;20000;-77
2024/04/05 12:17:06;;;;;;;2.22;0.80;;;17.40;99.90;;;;;;6302111;22;20386;-77
2024/04/05 12:19:32;;;;;;;3.80;0.70;;;17.50;99.90;;;;;;6303956;22;20015;-77
2024/04/05 12:21:58;;;;;;;1.50;0.65;;;17.50;99.90;;;;;;6304097;22;20003;-78
2024/04/05 12:24:24;;;;;;;2.75;0.90;;;17.30;99.90;;;;;;6304623;22;20003;-78
2024/04/05 12:26:50;;;;;;;5.05;0.70;;;17.40;99.90;;;;;;6302485;22;20003;-77
2024/04/05 12:29:15;;;;;;;3.95;0.90;;;17.40;99.90;;;;;;6303228;22;20022;-76
2024/04/05 12:31:41;;;;;;;2.28;1.00;;;17.30;99.90;;;;;;6301900;22;20070;-76
2024/04/05 12:34:07;;;;;;;2.70;0.95;;;17.10;99.90;;;;;;6275113;22;20011;-77
2024/04/05 12:36:33;;;;;;;5.68;0.70;;;17.10;99.90;;;;;;6302890;22;19999;-77
2024/04/05 12:39:14;;;;;;;1.42;0.80;;;17.30;99.90;;;;;;6302580;22;20007;-78
2024/04/05 12:41:40;;;;;;;1.90;0.70;;;17.40;99.90;;;;;;6302860;22;20022;-77
2024/04/05 12:44:06;;;;;;;1.38;0.50;;;17.60;99.90;;;;;;6275558;22;20007;-78
2024/04/05 12:46:32;;;;;;;4.18;0.57;;;17.70;99.90;;;;;;6274204;22;20026;-76